createdAt,value
2023-04-04T00:01:17.760Z,3.5
2023-04-04T00:04:17.811Z,3.5
2023-04-04T00:07:17.753Z,3.5
2023-04-04T00:10:17.763Z,3.5
2023-04-04T00:13:17.761Z,3.4
2023-04-04T00:16:17.765Z,3.4
2023-04-04T00:19:17.764Z,3.4
2023-04-04T00:22:17.748Z,3.4
2023-04-04T00:25:17.753Z,3.4
2023-04-04T00:28:17.753Z,3.4
2023-04-04T00:31:17.782Z,3.4
2023-04-04T00:34:17.749Z,3.4
2023-04-04T00:37:17.757Z,3.4
2023-04-04T00:40:17.782Z,3.4
2023-04-04T00:43:17.752Z,3.3
2023-04-04T00:46:17.773Z,3.3
2023-04-04T00:52:17.745Z,3.3
2023-04-04T00:55:17.753Z,3.3
2023-04-04T00:58:17.760Z,3.3
2023-04-04T01:01:17.758Z,3.3
2023-04-04T01:04:17.848Z,3.2
2023-04-04T01:07:17.744Z,3.2
2023-04-04T01:10:17.744Z,3.2
2023-04-04T01:13:17.736Z,3.2
2023-04-04T01:16:17.759Z,3.2
2023-04-04T01:19:17.759Z,3.2
2023-04-04T01:25:17.736Z,3.1
2023-04-04T01:28:17.731Z,3.1
2023-04-04T01:31:17.756Z,3
2023-04-04T01:34:17.730Z,3
2023-04-04T01:37:17.721Z,3
2023-04-04T01:40:17.746Z,3
2023-04-04T01:43:17.727Z,3
2023-04-04T01:46:17.745Z,3
2023-04-04T01:49:17.726Z,2.9
2023-04-04T01:52:17.716Z,2.9
2023-04-04T01:55:17.718Z,2.9
2023-04-04T01:58:17.724Z,2.9
2023-04-04T02:01:17.723Z,2.9
2023-04-04T02:04:17.741Z,2.9
2023-04-04T02:07:17.726Z,2.9
2023-04-04T02:10:17.715Z,2.9
2023-04-04T02:13:17.721Z,2.9
2023-04-04T02:16:17.726Z,2.9
2023-04-04T02:19:17.754Z,2.8
2023-04-04T02:22:17.704Z,2.9
2023-04-04T02:25:17.715Z,2.9
2023-04-04T02:28:17.719Z,2.8
2023-04-04T02:31:17.726Z,2.8
2023-04-04T02:34:17.728Z,2.8
2023-04-04T02:37:17.732Z,2.8
2023-04-04T02:40:17.712Z,2.8
2023-04-04T02:43:17.709Z,2.8
2023-04-04T02:46:21.458Z,2.8
2023-04-04T02:49:17.707Z,2.8
2023-04-04T02:52:17.710Z,2.8
2023-04-04T02:55:17.710Z,2.8
2023-04-04T02:58:17.708Z,2.8
2023-04-04T03:01:17.779Z,2.7
2023-04-04T03:04:17.733Z,2.7
2023-04-04T03:07:17.714Z,2.7
2023-04-04T03:13:17.713Z,2.7
2023-04-04T03:16:17.735Z,2.6
2023-04-04T03:19:17.696Z,2.6
2023-04-04T03:22:17.690Z,2.6
2023-04-04T03:25:17.717Z,2.6
2023-04-04T03:28:17.701Z,2.5
2023-04-04T03:31:17.701Z,2.5
2023-04-04T03:34:17.685Z,2.5
2023-04-04T03:37:17.696Z,2.5
2023-04-04T03:40:17.692Z,2.5
2023-04-04T03:43:17.686Z,2.5
2023-04-04T03:46:17.705Z,2.5
2023-04-04T03:49:17.722Z,2.5
2023-04-04T03:52:17.692Z,2.5
2023-04-04T03:55:17.680Z,2.5
2023-04-04T03:58:17.682Z,2.5
2023-04-04T04:01:17.673Z,2.5
2023-04-04T04:04:17.680Z,2.5
2023-04-04T04:07:17.674Z,2.4
2023-04-04T04:10:17.678Z,2.4
2023-04-04T04:13:17.667Z,2.3
2023-04-04T04:16:17.699Z,2.3
2023-04-04T04:19:17.660Z,2.3
2023-04-04T04:22:17.663Z,2.2
2023-04-04T04:25:17.671Z,2.2
2023-04-04T04:28:17.670Z,2.1
2023-04-04T04:31:17.673Z,2.1
2023-04-04T04:37:17.659Z,2.1
2023-04-04T04:40:17.661Z,2.1
2023-04-04T04:46:17.711Z,2
2023-04-04T04:49:17.692Z,2
2023-04-04T04:52:17.656Z,2
2023-04-04T04:55:17.680Z,2
2023-04-04T04:58:17.666Z,2
2023-04-04T05:04:17.701Z,2
2023-04-04T05:07:17.669Z,2
2023-04-04T05:10:17.663Z,2.1
2023-04-04T05:13:17.670Z,2
2023-04-04T05:16:17.675Z,2
2023-04-04T05:19:17.706Z,2.1
2023-04-04T05:22:17.656Z,2.1
2023-04-04T05:25:17.688Z,2.1
2023-04-04T05:28:17.664Z,2.1
2023-04-04T05:31:17.664Z,2.1
2023-04-04T05:34:17.676Z,2.1
2023-04-04T05:37:17.669Z,2.1
2023-04-04T05:40:17.664Z,2.1
2023-04-04T05:43:17.658Z,2.1
2023-04-04T05:46:17.705Z,2.1
2023-04-04T05:49:17.679Z,2.1
2023-04-04T05:52:17.675Z,2.1
2023-04-04T05:55:17.674Z,2.1
2023-04-04T05:58:17.666Z,2.2
2023-04-04T06:01:17.682Z,2.2
2023-04-04T06:04:17.659Z,2.2
2023-04-04T06:07:17.665Z,2.2
2023-04-04T06:10:17.660Z,2.3
2023-04-04T06:13:17.677Z,2.3
2023-04-04T06:16:17.674Z,2.3
2023-04-04T06:22:17.695Z,2.3
2023-04-04T06:25:17.665Z,2.4
2023-04-04T06:28:17.652Z,2.4
2023-04-04T06:31:17.666Z,2.4
2023-04-04T06:34:17.651Z,2.5
2023-04-04T06:37:17.646Z,2.5
2023-04-04T06:40:17.652Z,2.6
2023-04-04T06:43:17.635Z,2.6
2023-04-04T06:46:17.655Z,2.7
2023-04-04T06:49:17.636Z,2.7
2023-04-04T06:52:17.643Z,2.8
2023-04-04T06:55:17.648Z,2.9
2023-04-04T06:58:17.627Z,2.9
2023-04-04T07:01:17.664Z,2.9
2023-04-04T07:04:17.640Z,3
2023-04-04T07:07:17.704Z,3.1
2023-04-04T07:10:17.644Z,3.2
2023-04-04T07:13:17.634Z,3.2
2023-04-04T07:16:17.643Z,3.2
2023-04-04T07:19:17.628Z,3.3
2023-04-04T07:22:17.629Z,3.4
2023-04-04T07:25:17.631Z,3.5
2023-04-04T07:28:17.626Z,3.5
2023-04-04T07:31:17.617Z,3.5
2023-04-04T07:34:17.630Z,3.5
2023-04-04T07:37:17.628Z,3.6
2023-04-04T07:40:17.674Z,3.7
2023-04-04T07:43:17.604Z,3.7
2023-04-04T07:46:17.664Z,3.7
2023-04-04T07:49:17.616Z,3.8
2023-04-04T07:52:17.619Z,3.8
2023-04-04T07:55:17.619Z,3.8
2023-04-04T07:58:17.613Z,3.9
2023-04-04T08:01:17.618Z,3.9
2023-04-04T08:04:17.696Z,4
2023-04-04T08:07:17.617Z,4
2023-04-04T08:10:17.894Z,4.1
2023-04-04T08:13:17.615Z,4.1
2023-04-04T08:16:17.822Z,4.1
2023-04-04T08:19:17.610Z,4.2
2023-04-04T08:22:17.608Z,4.2
2023-04-04T08:25:17.610Z,4.3
2023-04-04T08:28:17.618Z,4.3
2023-04-04T08:31:17.649Z,4.3
2023-04-04T08:34:17.643Z,4.4
2023-04-04T08:37:17.609Z,4.4
2023-04-04T08:40:17.630Z,4.4
2023-04-04T08:43:17.619Z,4.5
2023-04-04T08:46:17.628Z,4.5
2023-04-04T08:49:17.718Z,4.5
2023-04-04T08:52:17.638Z,4.6
2023-04-04T08:55:17.619Z,4.6
2023-04-04T08:58:17.630Z,4.7
2023-04-04T09:01:17.660Z,4.7
2023-04-04T09:04:17.624Z,4.8
2023-04-04T09:07:17.639Z,4.8
2023-04-04T09:10:17.820Z,4.9
2023-04-04T09:13:17.657Z,4.9
2023-04-04T09:16:17.677Z,5
2023-04-04T09:19:17.648Z,5
2023-04-04T09:22:17.647Z,5.1
2023-04-04T09:25:17.647Z,5.1
2023-04-04T09:28:17.653Z,5.1
2023-04-04T09:31:17.640Z,5.2
2023-04-04T09:34:17.631Z,5.2
2023-04-04T09:37:17.710Z,5.3
2023-04-04T09:40:17.666Z,5.3
2023-04-04T09:43:17.633Z,5.4
2023-04-04T09:46:17.653Z,5.4
2023-04-04T09:49:17.632Z,5.5
2023-04-04T09:52:17.639Z,5.6
2023-04-04T09:55:17.647Z,5.6
2023-04-04T09:58:17.646Z,5.6
2023-04-04T10:01:17.664Z,5.7
2023-04-04T10:04:17.663Z,5.8
2023-04-04T10:07:17.643Z,5.8
2023-04-04T10:10:17.641Z,5.8
2023-04-04T10:13:17.645Z,5.9
2023-04-04T10:16:17.679Z,5.9
2023-04-04T10:19:17.641Z,6
2023-04-04T10:22:17.632Z,6
2023-04-04T10:25:17.650Z,6
2023-04-04T10:28:17.645Z,6.1
2023-04-04T10:31:17.662Z,6.1
2023-04-04T10:34:17.709Z,6.2
2023-04-04T10:37:17.629Z,6.3
2023-04-04T10:40:17.624Z,6.3
2023-04-04T10:43:17.629Z,6.3
2023-04-04T10:46:17.647Z,6.4
2023-04-04T10:49:17.621Z,6.4
2023-04-04T10:52:17.641Z,6.4
2023-04-04T10:55:17.617Z,6.5
2023-04-04T10:58:17.616Z,6.5
2023-04-04T11:01:17.659Z,6.6
2023-04-04T11:04:20.231Z,6.6
2023-04-04T11:07:17.659Z,6.6
2023-04-04T11:10:17.652Z,6.7
2023-04-04T11:13:17.634Z,6.7
2023-04-04T11:16:17.624Z,6.7
2023-04-04T11:19:17.608Z,6.8
2023-04-04T11:22:17.607Z,6.8
2023-04-04T11:25:17.611Z,6.9
2023-04-04T11:28:17.609Z,6.9
2023-04-04T11:31:17.621Z,6.9
2023-04-04T11:34:17.599Z,7
2023-04-04T11:37:17.652Z,7
2023-04-04T11:40:17.613Z,7
2023-04-04T11:43:17.599Z,7.1
2023-04-04T11:46:17.619Z,7.1
2023-04-04T11:49:17.597Z,7.1
2023-04-04T11:52:17.609Z,7.2
2023-04-04T11:55:17.589Z,7.2
2023-04-04T11:58:17.602Z,7.2
2023-04-04T12:01:17.593Z,7.3
2023-04-04T12:04:17.598Z,7.3
2023-04-04T12:10:17.596Z,7.3
2023-04-04T12:13:17.605Z,7.4
2023-04-04T12:16:17.594Z,7.5
2023-04-04T12:19:17.585Z,7.5
2023-04-04T12:22:17.603Z,7.5
2023-04-04T12:25:17.590Z,7.5
2023-04-04T12:28:17.581Z,7.6
2023-04-04T12:31:17.593Z,7.6
2023-04-04T12:34:17.590Z,7.6
2023-04-04T12:37:17.577Z,7.6
2023-04-04T12:40:17.568Z,7.7
2023-04-04T12:43:17.598Z,7.7
2023-04-04T12:46:17.607Z,7.7
2023-04-04T12:49:17.579Z,7.8
2023-04-04T12:52:17.576Z,7.8
2023-04-04T12:55:17.587Z,7.8
2023-04-04T12:58:17.565Z,7.9
2023-04-04T13:01:17.632Z,7.9
2023-04-04T13:04:17.655Z,7.9
2023-04-04T13:07:17.574Z,8
2023-04-04T13:10:17.598Z,7.9
2023-04-04T13:13:17.563Z,7.9
2023-04-04T13:16:17.577Z,8
2023-04-04T13:19:17.563Z,8
2023-04-04T13:22:17.564Z,8
2023-04-04T13:25:17.558Z,8.1
2023-04-04T13:28:17.583Z,8.1
2023-04-04T13:31:17.638Z,8.1
2023-04-04T13:34:17.625Z,8.1
2023-04-04T13:37:17.574Z,8.2
2023-04-04T13:40:17.568Z,8.1
2023-04-04T13:43:17.563Z,8.1
2023-04-04T13:46:17.569Z,8.2
2023-04-04T13:49:17.556Z,8.2
2023-04-04T13:52:17.569Z,8.2
2023-04-04T13:55:17.564Z,8.2
2023-04-04T13:58:17.567Z,8.3
2023-04-04T14:01:17.569Z,8.3
2023-04-04T14:04:23.677Z,8.2
2023-04-04T14:07:17.568Z,8.2
2023-04-04T14:10:17.554Z,8.2
2023-04-04T14:13:17.557Z,8.2
2023-04-04T14:16:17.567Z,8.2
2023-04-04T14:19:17.559Z,8.2
2023-04-04T14:22:17.549Z,8.2
2023-04-04T14:25:17.556Z,8.2
2023-04-04T14:28:17.549Z,8.2
2023-04-04T14:31:17.589Z,8.2
2023-04-04T14:37:17.548Z,8.2
2023-04-04T14:40:17.563Z,8.2
2023-04-04T14:43:17.549Z,8.2
2023-04-04T14:46:17.608Z,8.2
2023-04-04T14:49:17.547Z,8.2
2023-04-04T14:52:17.540Z,8.2
2023-04-04T14:55:17.545Z,8.2
2023-04-04T14:58:17.554Z,8.2
2023-04-04T15:01:17.564Z,8.1
2023-04-04T15:04:17.583Z,8.1
2023-04-04T15:07:17.541Z,8
2023-04-04T15:10:17.550Z,8
2023-04-04T15:13:17.528Z,8
2023-04-04T15:16:17.583Z,7.9
2023-04-04T15:19:17.536Z,7.9
2023-04-04T15:22:17.547Z,7.9
2023-04-04T15:25:17.549Z,7.9
2023-04-04T15:28:17.522Z,7.8
2023-04-04T15:31:17.538Z,7.8
2023-04-04T15:34:17.524Z,7.8
2023-04-04T15:37:17.522Z,7.8
2023-04-04T15:40:17.540Z,7.8
2023-04-04T15:43:17.516Z,7.7
2023-04-04T15:46:17.567Z,7.7
2023-04-04T15:49:17.525Z,7.7
2023-04-04T15:52:17.532Z,7.7
2023-04-04T15:55:17.586Z,7.7
2023-04-04T15:58:17.512Z,7.7
2023-04-04T16:01:17.567Z,7.6
2023-04-04T16:04:17.520Z,7.6
2023-04-04T16:07:17.519Z,7.6
2023-04-04T16:10:17.514Z,7.6
2023-04-04T16:13:17.551Z,7.6
2023-04-04T16:16:17.554Z,7.6
2023-04-04T16:19:17.509Z,7.6
2023-04-04T16:22:17.519Z,7.6
2023-04-04T16:25:17.533Z,7.6
2023-04-04T16:28:17.508Z,7.6
2023-04-04T16:31:17.560Z,7.6
2023-04-04T16:34:17.512Z,7.5
2023-04-04T16:37:17.520Z,7.5
2023-04-04T16:40:17.512Z,7.6
2023-04-04T16:43:17.501Z,7.6
2023-04-04T16:46:17.531Z,7.5
2023-04-04T16:49:17.514Z,7.5
2023-04-04T16:52:17.496Z,7.5
2023-04-04T16:55:17.499Z,7.5
2023-04-04T16:58:17.501Z,7.5
2023-04-04T17:01:17.516Z,7.5
2023-04-04T17:04:17.588Z,7.5
2023-04-04T17:10:17.496Z,7.4
2023-04-04T17:13:17.482Z,7.3
2023-04-04T17:16:17.558Z,7.3
2023-04-04T17:19:17.488Z,7.3
2023-04-04T17:22:17.485Z,7.2
2023-04-04T17:25:17.504Z,7.2
2023-04-04T17:28:17.486Z,7.2
2023-04-04T17:31:17.504Z,7.1
2023-04-04T17:37:17.480Z,7
2023-04-04T17:40:17.470Z,7
2023-04-04T17:43:17.483Z,7
2023-04-04T17:46:17.519Z,6.9
2023-04-04T17:49:17.488Z,6.9
2023-04-04T17:52:17.469Z,6.9
2023-04-04T17:55:17.484Z,6.8
2023-04-04T17:58:17.476Z,6.8
2023-04-04T18:01:17.493Z,6.8
2023-04-04T18:04:17.471Z,6.7
2023-04-04T18:07:17.462Z,6.7
2023-04-04T18:10:17.463Z,6.6
2023-04-04T18:13:17.460Z,6.6
2023-04-04T18:19:17.468Z,6.5
2023-04-04T18:22:17.468Z,6.5
2023-04-04T18:25:17.482Z,6.4
2023-04-04T18:28:17.473Z,6.4
2023-04-04T18:31:17.462Z,6.3
2023-04-04T18:34:17.464Z,6.3
2023-04-04T18:37:17.453Z,6.2
2023-04-04T18:40:17.468Z,6.2
2023-04-04T18:43:17.466Z,6.2
2023-04-04T18:46:17.481Z,6.1
2023-04-04T18:49:17.465Z,6.1
2023-04-04T18:52:17.463Z,6.1
2023-04-04T18:55:17.464Z,6
2023-04-04T18:58:17.466Z,6
2023-04-04T19:01:17.516Z,6
2023-04-04T19:04:17.482Z,5.9
2023-04-04T19:07:17.462Z,5.9
2023-04-04T19:10:17.467Z,5.9
2023-04-04T19:13:17.466Z,5.9
2023-04-04T19:16:17.477Z,5.8
2023-04-04T19:19:17.485Z,5.8
2023-04-04T19:22:17.468Z,5.8
2023-04-04T19:25:17.481Z,5.8
2023-04-04T19:28:17.479Z,5.7
2023-04-04T19:31:17.476Z,5.7
2023-04-04T19:34:17.472Z,5.7
2023-04-04T19:40:17.479Z,5.6
2023-04-04T19:43:17.466Z,5.6
2023-04-04T19:46:17.524Z,5.6
2023-04-04T19:49:17.470Z,5.6
2023-04-04T19:52:17.464Z,5.6
2023-04-04T19:55:17.460Z,5.5
2023-04-04T19:58:17.462Z,5.5
2023-04-04T20:01:17.471Z,5.5
2023-04-04T20:04:17.473Z,5.4
2023-04-04T20:07:17.452Z,5.4
2023-04-04T20:10:17.462Z,5.4
2023-04-04T20:13:17.463Z,5.4
2023-04-04T20:16:17.509Z,5.3
2023-04-04T20:19:17.459Z,5.3
2023-04-04T20:22:17.459Z,5.3
2023-04-04T20:25:17.451Z,5.3
2023-04-04T20:28:17.526Z,5.3
2023-04-04T20:31:17.464Z,5.2
2023-04-04T20:34:17.453Z,5.2
2023-04-04T20:37:17.453Z,5.2
2023-04-04T20:40:17.452Z,5.2
2023-04-04T20:43:17.455Z,5.2
2023-04-04T20:46:17.468Z,5.2
2023-04-04T20:49:17.442Z,5.2
2023-04-04T20:52:17.443Z,5.2
2023-04-04T20:55:17.444Z,5.2
2023-04-04T20:58:17.441Z,5.2
2023-04-04T21:01:17.475Z,5.2
2023-04-04T21:04:17.483Z,5.2
2023-04-04T21:07:17.447Z,5.2
2023-04-04T21:13:17.444Z,5.2
2023-04-04T21:16:17.467Z,5.3
2023-04-04T21:19:17.439Z,5.3
2023-04-04T21:22:17.442Z,5.3
2023-04-04T21:25:17.443Z,5.3
2023-04-04T21:31:17.464Z,5.3
2023-04-04T21:34:17.438Z,5.3
2023-04-04T21:37:17.424Z,5.3
2023-04-04T21:40:17.431Z,5.3
2023-04-04T21:43:17.426Z,5.3
2023-04-04T21:46:17.438Z,5.2
2023-04-04T21:49:17.435Z,5.2
2023-04-04T21:52:17.431Z,5.2
2023-04-04T21:55:17.615Z,5.1
2023-04-04T21:58:17.445Z,5.1
2023-04-04T22:04:17.454Z,5.1
2023-04-04T22:07:17.421Z,5
2023-04-04T22:10:17.421Z,5
2023-04-04T22:13:17.435Z,5
2023-04-04T22:16:17.449Z,5
2023-04-04T22:19:17.404Z,4.9
2023-04-04T22:22:17.416Z,4.9
2023-04-04T22:25:17.413Z,4.9
2023-04-04T22:28:17.427Z,4.9
2023-04-04T22:31:17.419Z,4.9
2023-04-04T22:34:17.404Z,4.9
2023-04-04T22:37:17.408Z,4.9
2023-04-04T22:40:17.413Z,4.9
2023-04-04T22:43:17.400Z,4.8
2023-04-04T22:46:17.439Z,4.8
2023-04-04T22:49:17.406Z,4.8
2023-04-04T22:52:17.400Z,4.8
2023-04-04T22:55:17.403Z,4.8
2023-04-04T22:58:17.399Z,4.8
2023-04-04T23:01:17.398Z,4.7
2023-04-04T23:04:17.410Z,4.7
2023-04-04T23:07:17.406Z,4.7
2023-04-04T23:10:17.387Z,4.7
2023-04-04T23:13:17.402Z,4.7
2023-04-04T23:16:17.451Z,4.7
2023-04-04T23:19:17.384Z,4.6
2023-04-04T23:22:17.383Z,4.6
2023-04-04T23:25:17.404Z,4.6
2023-04-04T23:28:17.442Z,4.6
2023-04-04T23:31:17.410Z,4.6
2023-04-04T23:34:17.384Z,4.6
2023-04-04T23:37:17.373Z,4.5
2023-04-04T23:40:17.367Z,4.5
2023-04-04T23:43:17.380Z,4.4
2023-04-04T23:46:17.419Z,4.4
2023-04-04T23:49:17.373Z,4.4
2023-04-04T23:52:17.378Z,4.3
2023-04-04T23:55:17.378Z,4.3
2023-04-04T23:58:17.390Z,4.3
